sensor_id;sensor_type;location;lat;lon;timestamp;pressure;altitude;pressure_sealevel;temperature;humidity
4745;BME280;2386;42.138;24.746;2022-08-30T00:00:07;99500.66;;;26.09;68.50
4745;BME280;2386;42.138;24.746;2022-08-30T00:02:53;99489.66;;;26.12;68.18
4745;BME280;2386;42.138;24.746;2022-08-30T00:05:18;99493.47;;;26.08;68.30
4745;BME280;2386;42.138;24.746;2022-08-30T00:07:44;99486.41;;;26.10;68.72
4745;BME280;2386;42.138;24.746;2022-08-30T00:10:09;99478.75;;;26.07;68.98
4745;BME280;2386;42.138;24.746;2022-08-30T00:12:35;99483.34;;;26.03;68.86
4745;BME280;2386;42.138;24.746;2022-08-30T00:15:01;99497.66;;;25.93;69.61
4745;BME280;2386;42.138;24.746;2022-08-30T00:17:27;99498.47;;;25.94;69.95
4745;BME280;2386;42.138;24.746;2022-08-30T00:19:52;99494.25;;;25.88;70.68
4745;BME280;2386;42.138;24.746;2022-08-30T00:22:20;99493.94;;;25.89;70.88
4745;BME280;2386;42.138;24.746;2022-08-30T00:24:45;99479.78;;;25.73;71.66
4745;BME280;2386;42.138;24.746;2022-08-30T00:27:10;99487.00;;;25.66;72.04
4745;BME280;2386;42.138;24.746;2022-08-30T00:29:36;99487.50;;;25.68;72.75
4745;BME280;2386;42.138;24.746;2022-08-30T00:32:02;99492.72;;;25.69;72.41
4745;BME280;2386;42.138;24.746;2022-08-30T00:34:27;99494.69;;;25.60;73.12
4745;BME280;2386;42.138;24.746;2022-08-30T00:36:52;99495.34;;;25.66;72.38
4745;BME280;2386;42.138;24.746;2022-08-30T00:39:18;99487.50;;;25.59;72.93
4745;BME280;2386;42.138;24.746;2022-08-30T00:41:43;99501.41;;;25.59;73.58
4745;BME280;2386;42.138;24.746;2022-08-30T00:44:09;99499.09;;;25.70;72.80
4745;BME280;2386;42.138;24.746;2022-08-30T00:46:34;99491.44;;;25.58;73.46
4745;BME280;2386;42.138;24.746;2022-08-30T00:49:02;99486.84;;;25.62;73.48
4745;BME280;2386;42.138;24.746;2022-08-30T00:51:30;99493.88;;;25.60;73.00
4745;BME280;2386;42.138;24.746;2022-08-30T00:53:59;99483.97;;;25.41;73.73
4745;BME280;2386;42.138;24.746;2022-08-30T00:56:25;99490.69;;;25.40;73.51
4745;BME280;2386;42.138;24.746;2022-08-30T00:58:54;99490.69;;;25.40;73.79
4745;BME280;2386;42.138;24.746;2022-08-30T01:01:21;99485.75;;;25.46;73.41
4745;BME280;2386;42.138;24.746;2022-08-30T01:03:47;99482.13;;;25.54;72.82
4745;BME280;2386;42.138;24.746;2022-08-30T01:06:13;99482.28;;;25.58;72.15
4745;BME280;2386;42.138;24.746;2022-08-30T01:08:40;99483.28;;;25.53;72.03
4745;BME280;2386;42.138;24.746;2022-08-30T01:11:06;99476.91;;;25.52;72.01
4745;BME280;2386;42.138;24.746;2022-08-30T01:13:32;99486.22;;;25.57;72.05
4745;BME280;2386;42.138;24.746;2022-08-30T01:16:00;99489.00;;;25.57;72.29
4745;BME280;2386;42.138;24.746;2022-08-30T01:18:27;99485.72;;;25.54;71.67
4745;BME280;2386;42.138;24.746;2022-08-30T01:21:16;99485.56;;;25.51;71.62
4745;BME280;2386;42.138;24.746;2022-08-30T01:23:46;99484.75;;;25.50;72.34
4745;BME280;2386;42.138;24.746;2022-08-30T01:26:13;99490.50;;;25.45;72.75
4745;BME280;2386;42.138;24.746;2022-08-30T01:28:39;99486.28;;;25.39;73.71
4745;BME280;2386;42.138;24.746;2022-08-30T01:31:06;99483.84;;;25.38;74.16
4745;BME280;2386;42.138;24.746;2022-08-30T01:33:34;99478.94;;;25.35;74.71
4745;BME280;2386;42.138;24.746;2022-08-30T01:36:03;99479.94;;;25.30;76.08
4745;BME280;2386;42.138;24.746;2022-08-30T01:38:35;99477.38;;;25.25;76.55
4745;BME280;2386;42.138;24.746;2022-08-30T01:41:21;99469.06;;;25.16;77.07
4745;BME280;2386;42.138;24.746;2022-08-30T01:43:49;99464.16;;;25.13;76.76
4745;BME280;2386;42.138;24.746;2022-08-30T01:46:18;99468.75;;;25.09;75.99
4745;BME280;2386;42.138;24.746;2022-08-30T01:48:44;99465.34;;;25.04;75.89
4745;BME280;2386;42.138;24.746;2022-08-30T01:51:12;99459.78;;;25.04;75.32
4745;BME280;2386;42.138;24.746;2022-08-30T01:53:39;99460.94;;;25.03;74.87
4745;BME280;2386;42.138;24.746;2022-08-30T01:56:06;99458.47;;;25.10;75.13
4745;BME280;2386;42.138;24.746;2022-08-30T01:58:33;99456.69;;;25.05;75.31
4745;BME280;2386;42.138;24.746;2022-08-30T02:00:58;99447.72;;;25.00;75.56
4745;BME280;2386;42.138;24.746;2022-08-30T02:03:24;99457.50;;;25.06;74.78
4745;BME280;2386;42.138;24.746;2022-08-30T02:05:50;99457.00;;;25.04;74.61
4745;BME280;2386;42.138;24.746;2022-08-30T02:08:16;99454.91;;;25.01;75.81
4745;BME280;2386;42.138;24.746;2022-08-30T02:10:41;99467.44;;;25.07;75.74
4745;BME280;2386;42.138;24.746;2022-08-30T02:13:07;99463.53;;;25.08;75.71
4745;BME280;2386;42.138;24.746;2022-08-30T02:15:33;99463.56;;;24.99;75.81
4745;BME280;2386;42.138;24.746;2022-08-30T02:17:59;99453.09;;;24.96;75.97
4745;BME280;2386;42.138;24.746;2022-08-30T02:20:25;99470.88;;;25.04;75.74
4745;BME280;2386;42.138;24.746;2022-08-30T02:22:50;99466.63;;;25.06;75.53
4745;BME280;2386;42.138;24.746;2022-08-30T02:25:16;99475.44;;;25.08;75.66
4745;BME280;2386;42.138;24.746;2022-08-30T02:27:41;99483.75;;;25.17;75.16
4745;BME280;2386;42.138;24.746;2022-08-30T02:30:08;99477.72;;;25.15;75.45
4745;BME280;2386;42.138;24.746;2022-08-30T02:32:34;99474.31;;;25.09;75.27
4745;BME280;2386;42.138;24.746;2022-08-30T02:34:59;99465.97;;;25.09;75.23
4745;BME280;2386;42.138;24.746;2022-08-30T02:37:25;99471.84;;;25.08;75.36
4745;BME280;2386;42.138;24.746;2022-08-30T02:39:50;99479.34;;;25.16;75.17
4745;BME280;2386;42.138;24.746;2022-08-30T02:42:16;99485.38;;;25.18;75.05
4745;BME280;2386;42.138;24.746;2022-08-30T02:44:41;99479.34;;;25.16;75.54
4745;BME280;2386;42.138;24.746;2022-08-30T02:47:07;99482.97;;;25.08;75.84
4745;BME280;2386;42.138;24.746;2022-08-30T02:49:33;99477.91;;;25.01;76.15
4745;BME280;2386;42.138;24.746;2022-08-30T02:51:58;99478.25;;;25.00;75.75
4745;BME280;2386;42.138;24.746;2022-08-30T02:54:24;99480.38;;;25.03;75.46
4745;BME280;2386;42.138;24.746;2022-08-30T02:56:49;99469.75;;;24.96;75.23
4745;BME280;2386;42.138;24.746;2022-08-30T02:59:16;99475.47;;;25.00;74.17
4745;BME280;2386;42.138;24.746;2022-08-30T03:01:42;99477.25;;;25.04;73.99
4745;BME280;2386;42.138;24.746;2022-08-30T03:04:07;99466.47;;;24.94;74.16
4745;BME280;2386;42.138;24.746;2022-08-30T03:06:34;99467.63;;;24.93;73.20
4745;BME280;2386;42.138;24.746;2022-08-30T03:08:59;99468.28;;;24.99;73.76
4745;BME280;2386;42.138;24.746;2022-08-30T03:11:25;99471.06;;;24.99;73.77
4745;BME280;2386;42.138;24.746;2022-08-30T03:13:50;99468.78;;;25.01;72.96
4745;BME280;2386;42.138;24.746;2022-08-30T03:16:16;99466.00;;;24.92;72.71
4745;BME280;2386;42.138;24.746;2022-08-30T03:18:41;99481.84;;;25.00;73.24
4745;BME280;2386;42.138;24.746;2022-08-30T03:21:11;99478.09;;;24.96;72.65
4745;BME280;2386;42.138;24.746;2022-08-30T03:23:37;99480.38;;;25.03;73.21
4745;BME280;2386;42.138;24.746;2022-08-30T03:26:03;99481.16;;;24.95;73.34
4745;BME280;2386;42.138;24.746;2022-08-30T03:28:28;99483.94;;;24.95;73.00
4745;BME280;2386;42.138;24.746;2022-08-30T03:30:53;99476.75;;;24.94;72.84
4745;BME280;2386;42.138;24.746;2022-08-30T03:33:20;99483.44;;;24.93;72.48
4745;BME280;2386;42.138;24.746;2022-08-30T03:35:45;99489.50;;;25.03;71.85
4745;BME280;2386;42.138;24.746;2022-08-30T03:38:11;99483.78;;;25.00;72.34
4745;BME280;2386;42.138;24.746;2022-08-30T03:40:36;99477.75;;;24.98;73.23
4745;BME280;2386;42.138;24.746;2022-08-30T03:43:02;99481.66;;;25.05;72.76
4745;BME280;2386;42.138;24.746;2022-08-30T03:45:27;99482.97;;;25.08;72.66
4745;BME280;2386;42.138;24.746;2022-08-30T03:47:53;99486.88;;;25.07;72.33
4745;BME280;2386;42.138;24.746;2022-08-30T03:50:18;99487.53;;;25.04;72.54
4745;BME280;2386;42.138;24.746;2022-08-30T03:52:43;99494.41;;;24.98;73.11
4745;BME280;2386;42.138;24.746;2022-08-30T03:55:10;99493.41;;;24.94;72.72
4745;BME280;2386;42.138;24.746;2022-08-30T03:57:35;99486.22;;;24.93;73.41
4745;BME280;2386;42.138;24.746;2022-08-30T04:00:04;99488.88;;;24.98;73.65
4745;BME280;2386;42.138;24.746;2022-08-30T04:02:31;99491.97;;;24.96;73.40
4745;BME280;2386;42.138;24.746;2022-08-30T04:04:56;99506.16;;;24.95;73.65
4745;BME280;2386;42.138;24.746;2022-08-30T04:07:21;99500.28;;;24.96;73.31
4745;BME280;2386;42.138;24.746;2022-08-30T04:09:47;99496.03;;;24.99;73.12
4745;BME280;2386;42.138;24.746;2022-08-30T04:12:12;99505.50;;;25.06;73.01
4745;BME280;2386;42.138;24.746;2022-08-30T04:14:38;99496.19;;;25.11;73.13
4745;BME280;2386;42.138;24.746;2022-08-30T04:17:03;99508.75;;;25.17;72.26
4745;BME280;2386;42.138;24.746;2022-08-30T04:19:28;99508.75;;;25.08;72.61
4745;BME280;2386;42.138;24.746;2022-08-30T04:21:54;99519.53;;;25.10;72.95
4745;BME280;2386;42.138;24.746;2022-08-30T04:24:22;99510.72;;;25.08;73.00
4745;BME280;2386;42.138;24.746;2022-08-30T04:26:47;99508.44;;;25.10;73.54
4745;BME280;2386;42.138;24.746;2022-08-30T04:29:12;99514.81;;;25.10;73.37
4745;BME280;2386;42.138;24.746;2022-08-30T04:31:41;99508.28;;;25.06;73.63
4745;BME280;2386;42.138;24.746;2022-08-30T04:34:09;99515.78;;;25.06;73.02
4745;BME280;2386;42.138;24.746;2022-08-30T04:36:34;99520.84;;;25.04;73.09
4745;BME280;2386;42.138;24.746;2022-08-30T04:38:59;99508.13;;;25.03;73.18
4745;BME280;2386;42.138;24.746;2022-08-30T04:41:25;99517.09;;;25.08;73.06
4745;BME280;2386;42.138;24.746;2022-08-30T04:43:50;99520.34;;;25.10;72.48
4745;BME280;2386;42.138;24.746;2022-08-30T04:46:17;99523.28;;;25.23;72.56
4745;BME280;2386;42.138;24.746;2022-08-30T04:48:43;99522.47;;;25.22;72.43
4745;BME280;2386;42.138;24.746;2022-08-30T04:51:13;99530.78;;;25.22;72.49
4745;BME280;2386;42.138;24.746;2022-08-30T04:53:40;99522.16;;;25.15;72.81
4745;BME280;2386;42.138;24.746;2022-08-30T04:56:08;99519.19;;;25.20;72.56
4745;BME280;2386;42.138;24.746;2022-08-30T04:58:34;99533.34;;;25.27;72.01
4745;BME280;2386;42.138;24.746;2022-08-30T05:00:59;99530.41;;;25.32;71.94
4745;BME280;2386;42.138;24.746;2022-08-30T05:03:24;99539.72;;;25.36;71.61
4745;BME280;2386;42.138;24.746;2022-08-30T05:05:50;99537.91;;;25.32;72.02
4745;BME280;2386;42.138;24.746;2022-08-30T05:08:18;99536.28;;;25.31;71.73
4745;BME280;2386;42.138;24.746;2022-08-30T05:10:49;99541.50;;;25.32;71.54
4745;BME280;2386;42.138;24.746;2022-08-30T05:13:16;99543.63;;;25.35;71.57
4745;BME280;2386;42.138;24.746;2022-08-30T05:15:43;99536.44;;;25.34;71.85
4745;BME280;2386;42.138;24.746;2022-08-30T05:18:10;99539.22;;;25.34;72.36
4745;BME280;2386;42.138;24.746;2022-08-30T05:20:36;99532.81;;;25.42;72.08
4745;BME280;2386;42.138;24.746;2022-08-30T05:23:02;99528.59;;;25.36;72.29
4745;BME280;2386;42.138;24.746;2022-08-30T05:25:31;99534.28;;;25.48;72.78
4745;BME280;2386;42.138;24.746;2022-08-30T05:27:57;99526.59;;;25.45;71.69
4745;BME280;2386;42.138;24.746;2022-08-30T05:30:24;99537.50;;;25.59;71.06
4745;BME280;2386;42.138;24.746;2022-08-30T05:32:50;99542.25;;;25.59;70.72
4745;BME280;2386;42.138;24.746;2022-08-30T05:35:17;99541.59;;;25.70;70.73
4745;BME280;2386;42.138;24.746;2022-08-30T05:37:49;99539.78;;;25.74;70.27
4745;BME280;2386;42.138;24.746;2022-08-30T05:40:15;99544.53;;;25.74;69.52
4745;BME280;2386;42.138;24.746;2022-08-30T05:42:42;99542.53;;;25.83;69.58
4745;BME280;2386;42.138;24.746;2022-08-30T05:45:08;99545.13;;;25.88;69.41
4745;BME280;2386;42.138;24.746;2022-08-30T05:47:35;99549.00;;;25.96;69.45
4745;BME280;2386;42.138;24.746;2022-08-30T05:50:00;99546.47;;;26.03;68.57
4745;BME280;2386;42.138;24.746;2022-08-30T05:52:26;99547.25;;;26.12;68.54
4745;BME280;2386;42.138;24.746;2022-08-30T05:54:55;99548.00;;;26.21;68.72
4745;BME280;2386;42.138;24.746;2022-08-30T05:57:23;99551.28;;;26.23;67.94
4745;BME280;2386;42.138;24.746;2022-08-30T05:59:49;99549.31;;;26.24;67.50
4745;BME280;2386;42.138;24.746;2022-08-30T06:02:14;99537.03;;;26.25;67.21
4745;BME280;2386;42.138;24.746;2022-08-30T06:04:39;99537.84;;;26.25;67.44
4745;BME280;2386;42.138;24.746;2022-08-30T06:07:05;99547.47;;;26.36;67.41
4745;BME280;2386;42.138;24.746;2022-08-30T06:09:31;99542.22;;;26.35;66.84
4745;BME280;2386;42.138;24.746;2022-08-30T06:11:57;99536.19;;;26.33;66.88
4745;BME280;2386;42.138;24.746;2022-08-30T06:14:23;99539.44;;;26.35;67.25
4745;BME280;2386;42.138;24.746;2022-08-30T06:16:49;99543.88;;;26.36;66.32
4745;BME280;2386;42.138;24.746;2022-08-30T06:19:16;99542.72;;;26.37;67.17
4745;BME280;2386;42.138;24.746;2022-08-30T06:21:43;99550.19;;;26.45;66.46
4745;BME280;2386;42.138;24.746;2022-08-30T06:24:12;99552.28;;;26.48;66.31
4745;BME280;2386;42.138;24.746;2022-08-30T06:26:41;99558.81;;;26.52;66.16
4745;BME280;2386;42.138;24.746;2022-08-30T06:29:08;99552.16;;;26.44;65.43
4745;BME280;2386;42.138;24.746;2022-08-30T06:31:34;99545.97;;;26.39;66.16
4745;BME280;2386;42.138;24.746;2022-08-30T06:34:01;99553.38;;;26.56;66.63
4745;BME280;2386;42.138;24.746;2022-08-30T06:36:26;99556.25;;;26.68;66.68
4745;BME280;2386;42.138;24.746;2022-08-30T06:38:54;99556.84;;;26.73;65.24
4745;BME280;2386;42.138;24.746;2022-08-30T06:41:24;99555.00;;;26.77;65.01
4745;BME280;2386;42.138;24.746;2022-08-30T06:43:50;99553.56;;;26.92;64.60
4745;BME280;2386;42.138;24.746;2022-08-30T06:46:20;99556.28;;;27.01;64.06
4745;BME280;2386;42.138;24.746;2022-08-30T06:48:46;99545.84;;;26.98;62.80
4745;BME280;2386;42.138;24.746;2022-08-30T06:51:12;99540.75;;;27.00;63.80
4745;BME280;2386;42.138;24.746;2022-08-30T06:53:37;99537.31;;;26.94;63.55
4745;BME280;2386;42.138;24.746;2022-08-30T06:56:05;99546.31;;;27.00;63.90
4745;BME280;2386;42.138;24.746;2022-08-30T06:58:36;99550.16;;;27.07;63.43
4745;BME280;2386;42.138;24.746;2022-08-30T07:01:12;99541.25;;;27.14;63.18
4745;BME280;2386;42.138;24.746;2022-08-30T07:03:37;99544.31;;;27.21;63.04
4745;BME280;2386;42.138;24.746;2022-08-30T07:06:03;99538.53;;;27.26;62.35
4745;BME280;2386;42.138;24.746;2022-08-30T07:08:29;99544.59;;;27.40;61.55
4745;BME280;2386;42.138;24.746;2022-08-30T07:10:54;99528.81;;;27.44;61.11
4745;BME280;2386;42.138;24.746;2022-08-30T07:13:21;99537.16;;;27.57;61.14
4745;BME280;2386;42.138;24.746;2022-08-30T07:15:48;99538.38;;;27.68;61.41
4745;BME280;2386;42.138;24.746;2022-08-30T07:18:17;99533.16;;;27.78;60.44
4745;BME280;2386;42.138;24.746;2022-08-30T07:21:07;99539.22;;;27.93;60.04
4745;BME280;2386;42.138;24.746;2022-08-30T07:23:33;99529.91;;;28.01;59.39
4745;BME280;2386;42.138;24.746;2022-08-30T07:26:04;99534.22;;;28.10;58.76
4745;BME280;2386;42.138;24.746;2022-08-30T07:28:31;99534.44;;;28.18;58.30
4745;BME280;2386;42.138;24.746;2022-08-30T07:30:56;99537.22;;;28.30;58.01
4745;BME280;2386;42.138;24.746;2022-08-30T07:33:22;99541.97;;;28.41;58.09
4745;BME280;2386;42.138;24.746;2022-08-30T07:35:47;99536.25;;;28.50;58.25
4745;BME280;2386;42.138;24.746;2022-08-30T07:38:38;99530.88;;;28.57;56.57
4745;BME280;2386;42.138;24.746;2022-08-30T07:41:04;99548.44;;;28.70;57.21
4745;BME280;2386;42.138;24.746;2022-08-30T07:43:31;99544.09;;;28.72;56.19
4745;BME280;2386;42.138;24.746;2022-08-30T07:46:05;99541.78;;;28.74;55.46
4745;BME280;2386;42.138;24.746;2022-08-30T07:48:32;99540.84;;;28.70;55.97
4745;BME280;2386;42.138;24.746;2022-08-30T07:50:58;99538.16;;;28.74;55.87
4745;BME280;2386;42.138;24.746;2022-08-30T07:53:39;99550.84;;;28.84;56.04
4745;BME280;2386;42.138;24.746;2022-08-30T07:56:05;99543.06;;;28.77;55.49
4745;BME280;2386;42.138;24.746;2022-08-30T07:58:30;99549.00;;;28.75;54.75
4745;BME280;2386;42.138;24.746;2022-08-30T08:00:56;99555.28;;;28.72;55.80
4745;BME280;2386;42.138;24.746;2022-08-30T08:03:26;99550.25;;;28.78;55.33
4745;BME280;2386;42.138;24.746;2022-08-30T08:05:52;99564.69;;;28.92;55.03
4745;BME280;2386;42.138;24.746;2022-08-30T08:08:19;99565.50;;;28.93;52.49
4745;BME280;2386;42.138;24.746;2022-08-30T08:10:45;99550.72;;;28.92;52.56
4745;BME280;2386;42.138;24.746;2022-08-30T08:13:10;99554.94;;;29.02;51.90
4745;BME280;2386;42.138;24.746;2022-08-30T08:15:36;99557.75;;;29.02;51.92
4745;BME280;2386;42.138;24.746;2022-08-30T08:18:03;99557.84;;;29.05;51.34
4745;BME280;2386;42.138;24.746;2022-08-30T08:20:29;99550.84;;;29.11;51.88
4745;BME280;2386;42.138;24.746;2022-08-30T08:22:54;99551.38;;;29.17;51.75
4745;BME280;2386;42.138;24.746;2022-08-30T08:25:19;99549.50;;;29.21;50.96
4745;BME280;2386;42.138;24.746;2022-08-30T08:27:46;99548.59;;;29.17;50.97
4745;BME280;2386;42.138;24.746;2022-08-30T08:30:13;99545.91;;;29.21;50.46
4745;BME280;2386;42.138;24.746;2022-08-30T08:32:39;99535.28;;;29.26;51.18
4745;BME280;2386;42.138;24.746;2022-08-30T08:35:04;99542.69;;;29.34;50.70
4745;BME280;2386;42.138;24.746;2022-08-30T08:37:30;99536.38;;;29.37;50.80
4745;BME280;2386;42.138;24.746;2022-08-30T08:39:57;99535.16;;;29.51;51.31
4745;BME280;2386;42.138;24.746;2022-08-30T08:42:32;99547.81;;;29.60;49.72
4745;BME280;2386;42.138;24.746;2022-08-30T08:45:13;99536.91;;;29.71;48.66
4745;BME280;2386;42.138;24.746;2022-08-30T08:47:57;99540.31;;;29.80;49.41
4745;BME280;2386;42.138;24.746;2022-08-30T08:50:26;99537.94;;;29.82;47.19
4745;BME280;2386;42.138;24.746;2022-08-30T08:52:55;99544.72;;;29.81;47.22
4745;BME280;2386;42.138;24.746;2022-08-30T08:55:46;99533.81;;;29.76;47.57
4745;BME280;2386;42.138;24.746;2022-08-30T08:58:23;99530.00;;;29.84;48.93
4745;BME280;2386;42.138;24.746;2022-08-30T09:00:50;99539.31;;;29.88;48.05
4745;BME280;2386;42.138;24.746;2022-08-30T09:03:17;99534.78;;;29.99;47.51
4745;BME280;2386;42.138;24.746;2022-08-30T09:05:46;99540.13;;;30.04;44.50
4745;BME280;2386;42.138;24.746;2022-08-30T09:08:16;99536.16;;;30.05;44.93
4745;BME280;2386;42.138;24.746;2022-08-30T09:11:00;99527.22;;;30.16;45.51
4745;BME280;2386;42.138;24.746;2022-08-30T09:13:27;99535.31;;;30.21;46.30
4745;BME280;2386;42.138;24.746;2022-08-30T09:15:54;99533.06;;;30.26;46.30
4745;BME280;2386;42.138;24.746;2022-08-30T09:18:43;99529.25;;;30.34;46.10
4745;BME280;2386;42.138;24.746;2022-08-30T09:21:09;99529.03;;;30.43;47.10
4745;BME280;2386;42.138;24.746;2022-08-30T09:23:47;99529.91;;;30.47;45.15
4745;BME280;2386;42.138;24.746;2022-08-30T09:26:12;99521.97;;;30.49;45.85
4745;BME280;2386;42.138;24.746;2022-08-30T09:28:49;99526.19;;;30.59;43.33
4745;BME280;2386;42.138;24.746;2022-08-30T09:31:45;99523.63;;;30.69;43.43
4745;BME280;2386;42.138;24.746;2022-08-30T09:34:08;99519.34;;;30.76;43.54
4745;BME280;2386;42.138;24.746;2022-08-30T09:36:48;99527.63;;;30.88;43.83
4745;BME280;2386;42.138;24.746;2022-08-30T09:39:30;99522.16;;;30.95;42.99
4745;BME280;2386;42.138;24.746;2022-08-30T09:42:23;99511.41;;;30.97;42.94
4745;BME280;2386;42.138;24.746;2022-08-30T09:44:51;99516.31;;;31.03;43.10
4745;BME280;2386;42.138;24.746;2022-08-30T09:47:27;99507.19;;;31.07;42.81
4745;BME280;2386;42.138;24.746;2022-08-30T09:50:21;99514.03;;;31.09;41.72
4745;BME280;2386;42.138;24.746;2022-08-30T10:00:42;99495.69;;;31.34;42.37
4745;BME280;2386;42.138;24.746;2022-08-30T10:03:21;99493.03;;;31.42;42.90
4745;BME280;2386;42.138;24.746;2022-08-30T10:11:08;99475.09;;;31.69;43.01
4745;BME280;2386;42.138;24.746;2022-08-30T10:13:48;99482.00;;;31.75;42.35
4745;BME280;2386;42.138;24.746;2022-08-30T10:19:08;99474.91;;;31.81;42.52
4745;BME280;2386;42.138;24.746;2022-08-30T10:21:42;99474.56;;;31.86;42.25
4745;BME280;2386;42.138;24.746;2022-08-30T10:24:11;99477.06;;;31.91;40.88
4745;BME280;2386;42.138;24.746;2022-08-30T10:26:49;99483.50;;;31.95;39.17
4745;BME280;2386;42.138;24.746;2022-08-30T10:29:28;99471.09;;;31.96;39.86
4745;BME280;2386;42.138;24.746;2022-08-30T10:34:50;99464.34;;;32.01;41.71
4745;BME280;2386;42.138;24.746;2022-08-30T10:37:20;99448.69;;;32.00;41.05
4745;BME280;2386;42.138;24.746;2022-08-30T10:39:53;99457.22;;;32.07;41.58
4745;BME280;2386;42.138;24.746;2022-08-30T10:42:29;99458.25;;;32.22;40.85
4745;BME280;2386;42.138;24.746;2022-08-30T10:45:04;99454.13;;;32.16;40.81
4745;BME280;2386;42.138;24.746;2022-08-30T10:53:27;99451.19;;;32.31;40.42
4745;BME280;2386;42.138;24.746;2022-08-30T10:55:27;99450.38;;;32.31;40.41
4745;BME280;2386;42.138;24.746;2022-08-30T10:58:06;99445.56;;;32.31;40.61
4745;BME280;2386;42.138;24.746;2022-08-30T11:00:53;99441.66;;;32.40;40.85
4745;BME280;2386;42.138;24.746;2022-08-30T11:09:26;99446.75;;;32.60;38.90
4745;BME280;2386;42.138;24.746;2022-08-30T11:14:44;99418.75;;;32.67;38.65
4745;BME280;2386;42.138;24.746;2022-08-30T11:17:30;99428.03;;;32.75;38.31
4745;BME280;2386;42.138;24.746;2022-08-30T11:19:59;99422.91;;;32.81;39.26
4745;BME280;2386;42.138;24.746;2022-08-30T11:22:35;99414.13;;;32.86;38.75
4745;BME280;2386;42.138;24.746;2022-08-30T11:35:45;99414.03;;;33.16;37.90
4745;BME280;2386;42.138;24.746;2022-08-30T11:41:08;99413.81;;;33.32;37.71
4745;BME280;2386;42.138;24.746;2022-08-30T11:48:46;99396.22;;;33.42;36.59
4745;BME280;2386;42.138;24.746;2022-08-30T11:54:36;99398.69;;;33.54;35.14
4745;BME280;2386;42.138;24.746;2022-08-30T12:02:57;99390.34;;;33.68;35.92
4745;BME280;2386;42.138;24.746;2022-08-30T12:16:00;99387.81;;;34.11;35.60
4745;BME280;2386;42.138;24.746;2022-08-30T12:18:49;99391.88;;;34.20;35.91
4745;BME280;2386;42.138;24.746;2022-08-30T12:23:57;99377.53;;;34.47;35.64
4745;BME280;2386;42.138;24.746;2022-08-30T12:28:52;99375.13;;;36.16;33.14
4745;BME280;2386;42.138;24.746;2022-08-30T12:31:21;99374.63;;;37.98;31.06
4745;BME280;2386;42.138;24.746;2022-08-30T12:33:57;99376.72;;;39.86;28.84
4745;BME280;2386;42.138;24.746;2022-08-30T12:36:36;99380.34;;;41.01;26.32
4745;BME280;2386;42.138;24.746;2022-08-30T12:39:27;99394.81;;;41.27;25.05
4745;BME280;2386;42.138;24.746;2022-08-30T12:41:53;99402.66;;;41.39;24.29
4745;BME280;2386;42.138;24.746;2022-08-30T12:44:23;99424.00;;;40.59;24.77
4745;BME280;2386;42.138;24.746;2022-08-30T12:46:53;99420.53;;;39.65;26.37
4745;BME280;2386;42.138;24.746;2022-08-30T12:49:23;99415.84;;;38.06;28.52
4745;BME280;2386;42.138;24.746;2022-08-30T12:51:55;99432.13;;;36.98;30.04
4745;BME280;2386;42.138;24.746;2022-08-30T12:54:38;99430.44;;;36.10;31.79
4745;BME280;2386;42.138;24.746;2022-08-30T12:57:04;99429.03;;;36.64;30.26
4745;BME280;2386;42.138;24.746;2022-08-30T12:59:47;99429.66;;;37.56;29.72
4745;BME280;2386;42.138;24.746;2022-08-30T13:02:14;99426.66;;;37.29;29.96
4745;BME280;2386;42.138;24.746;2022-08-30T13:04:40;99421.56;;;36.11;30.12
4745;BME280;2386;42.138;24.746;2022-08-30T13:07:06;99409.13;;;35.52;31.38
4745;BME280;2386;42.138;24.746;2022-08-30T13:09:40;99415.91;;;34.94;31.05
4745;BME280;2386;42.138;24.746;2022-08-30T13:12:22;99405.59;;;34.29;32.07
4745;BME280;2386;42.138;24.746;2022-08-30T13:14:48;99403.84;;;33.96;32.01
4745;BME280;2386;42.138;24.746;2022-08-30T13:17:22;99393.78;;;33.44;34.12
4745;BME280;2386;42.138;24.746;2022-08-30T13:22:32;99382.47;;;32.55;34.29
4745;BME280;2386;42.138;24.746;2022-08-30T13:24:58;99366.53;;;32.29;35.22
4745;BME280;2386;42.138;24.746;2022-08-30T13:27:25;99371.75;;;32.31;35.31
4745;BME280;2386;42.138;24.746;2022-08-30T13:29:51;99355.63;;;32.24;34.77
4745;BME280;2386;42.138;24.746;2022-08-30T13:32:16;99373.19;;;32.21;34.95
4745;BME280;2386;42.138;24.746;2022-08-30T13:34:43;99374.84;;;32.22;34.93
4745;BME280;2386;42.138;24.746;2022-08-30T13:37:22;99379.31;;;32.27;34.01
4745;BME280;2386;42.138;24.746;2022-08-30T13:39:47;99387.84;;;32.67;34.22
4745;BME280;2386;42.138;24.746;2022-08-30T13:42:13;99391.81;;;34.03;33.33
4745;BME280;2386;42.138;24.746;2022-08-30T13:44:38;99398.94;;;34.73;32.46
4745;BME280;2386;42.138;24.746;2022-08-30T13:47:04;99399.75;;;34.73;32.33
4745;BME280;2386;42.138;24.746;2022-08-30T13:49:32;99389.59;;;34.44;33.29
4745;BME280;2386;42.138;24.746;2022-08-30T13:52:03;99390.25;;;34.16;34.16
4745;BME280;2386;42.138;24.746;2022-08-30T13:54:31;99392.63;;;34.07;34.63
4745;BME280;2386;42.138;24.746;2022-08-30T13:56:56;99386.88;;;33.85;35.43
4745;BME280;2386;42.138;24.746;2022-08-30T13:59:22;99384.44;;;33.80;35.70
4745;BME280;2386;42.138;24.746;2022-08-30T14:01:49;99377.94;;;33.76;35.80
4745;BME280;2386;42.138;24.746;2022-08-30T14:04:15;99383.50;;;33.66;35.87
4745;BME280;2386;42.138;24.746;2022-08-30T14:06:41;99378.13;;;33.46;36.05
4745;BME280;2386;42.138;24.746;2022-08-30T14:09:07;99367.75;;;33.54;36.82
4745;BME280;2386;42.138;24.746;2022-08-30T14:11:34;99373.06;;;33.66;37.11
4745;BME280;2386;42.138;24.746;2022-08-30T14:14:00;99381.63;;;33.80;37.62
4745;BME280;2386;42.138;24.746;2022-08-30T14:16:26;99378.81;;;33.80;37.92
4745;BME280;2386;42.138;24.746;2022-08-30T14:18:51;99373.88;;;33.70;37.93
4745;BME280;2386;42.138;24.746;2022-08-30T14:21:17;99379.47;;;33.63;37.83
4745;BME280;2386;42.138;24.746;2022-08-30T14:23:43;99376.22;;;33.61;37.73
4745;BME280;2386;42.138;24.746;2022-08-30T14:26:20;99377.78;;;33.51;38.33
4745;BME280;2386;42.138;24.746;2022-08-30T14:28:48;99393.44;;;33.52;38.44
4745;BME280;2386;42.138;24.746;2022-08-30T14:31:14;99408.28;;;33.42;39.27
4745;BME280;2386;42.138;24.746;2022-08-30T14:33:40;99407.41;;;33.35;39.41
4745;BME280;2386;42.138;24.746;2022-08-30T14:36:07;99412.13;;;33.27;40.38